Terminal Aerodrome Forecast
Issued by NWS Cleveland, OH

Home | Current Version | Previous Version | Graphics & Text | Print | Product List | Glossary On
Versions: 1 2 3 4 5 6 7 8 9 10 11 12 13 14 15 16 17 18 19
780
FTUS41 KCLE 161132
TAFTOL
TAF
KTOL 161132Z 1612/1712 24009KT P6SM -SN SCT015 BKN020
      TEMPO 1614/1616 P6SM NSW SCT020 BKN035
     FM161600 25009KT P6SM OVC030
      TEMPO 1616/1620 BKN035
     FM162200 25005KT P6SM BKN020
     FM171000 26004KT P6SM BKN035=

USA.gov is the U.S. government's official web portal to all federal, state and local government web resources and services.